Terminal Aerodrome Forecast
Issued by NWS

Home | Current Version | Previous Version | Text Only | Print | Product List | Glossary On
Versions: 1 2 3 4 5 6 7 8 9 10 11 12 13 14 15 16 17 18 19 20 21 22
000
FTUS43 KABR 260300 AAA
TAFATY
TAF AMD
KATY 260303Z 2603/2624 12005KT 6SM -SN FEW035 BKN050 OVC060
     FM260600 04012KT 3/4SM -SN BR OVC010
     FM261000 01019G27KT 3/4SM -SN BLSN OVC010
     FM261600 36019G27KT 2SM -SN BLSN OVC010=

USA.gov is the U.S. government's official web portal to all federal, state and local government web resources and services.